Terminal Aerodrome Forecast
Issued by NWS Louisville, KY

Home | Current Version | Previous Version | Text Only | Print | Product List | Glossary On
Versions: 1 2 3 4 5 6 7 8 9 10 11 12 13 14 15 16 17 18 19 20 21 22
464
FTUS43 KLMK 270520
TAFSDF
TAF
KSDF 270520Z 2706/2812 21005KT P6SM FEW250
      TEMPO 2709/2712 5SM BR
     FM271600 25009KT P6SM SKC
     FM280000 23006KT P6SM SKC=

USA.gov is the U.S. government's official web portal to all federal, state and local government web resources and services.